Weather at Porto Cheli Airport [CLOSED]

Public forecast

Using degrees Celsius for public forecast. Weather courtesy of forecast.io.

Closest aviation weather report (METAR) to Porto Cheli Airport

Closest report is Elefsis Airport, 49.8 nm (92.3 km) NNE. Retrieved 2021/04/17 11:20 UTC (5 minutes ago):

LGEL 171120Z 31011KT 9999 SCT025 20/10 Q1009

Closest aviation forecast (TAF) to Porto Cheli Airport

Closest forecast is Elefsis Airport, 49.8 nm (92.3 km) NNE. Retrieved 2021/04/17 06:12 UTC (5 hours ago):

TAF LGEL 170500Z 1706/1806 36012KT 9999 FEW018 BKN070 PROB30 TEMPO 1706/1709 5000 RA SCT015 BKN030 BKN070 BECMG 1708/1710 SCT020